Time,TemperatureF,DewpointF,PressureIn,WindDirection,WindDirectionDegrees,WindSpeedMPH,WindSpeedGustMPH,Humidity,HourlyPrecipIn,Conditions,Clouds,dailyrainin,SoftwareType,DateUTC
2013-09-07 00:14:00,73.8,72.9,29.93,ESE,112,0.0,-999.0,97,-99.99,,,0.00,Acu-Link.com,2013-09-07 05:14:00,
2013-09-07 00:29:00,73.2,72.3,29.93,WNW,292,0.0,-999.0,97,-99.99,,,0.00,Acu-Link.com,2013-09-07 05:29:00,
2013-09-07 00:44:00,73.2,72.3,29.92,NNE,22,0.0,-999.0,97,-99.99,,,0.00,Acu-Link.com,2013-09-07 05:44:00,
2013-09-07 01:00:00,73.2,72.6,29.92,NE,45,0.0,-999.0,98,-99.99,,,0.00,Acu-Link.com,2013-09-07 06:00:00,
2013-09-07 01:15:00,73.2,72.6,29.92,SSW,202,0.0,-999.0,98,-99.99,,,0.00,Acu-Link.com,2013-09-07 06:15:00,
2013-09-07 01:30:00,73.2,72.6,29.91,NE,45,0.0,-999.0,98,-99.99,,,0.00,Acu-Link.com,2013-09-07 06:30:00,
2013-09-07 01:46:00,73.0,72.4,29.91,NW,315,0.0,-999.0,98,-99.99,,,0.00,Acu-Link.com,2013-09-07 06:46:00,
2013-09-07 02:01:00,72.9,72.3,29.92,WNW,292,0.0,-999.0,98,-99.99,,,0.00,Acu-Link.com,2013-09-07 07:01:00,
2013-09-07 02:16:00,72.7,72.1,29.92,NNW,337,0.0,-999.0,98,-99.99,,,0.00,Acu-Link.com,2013-09-07 07:16:00,
2013-09-07 02:32:00,72.7,72.1,29.92,ESE,112,0.0,-999.0,98,-99.99,,,0.00,Acu-Link.com,2013-09-07 07:32:00,
2013-09-07 02:47:00,72.1,71.5,29.91,ESE,112,0.0,-999.0,98,-99.99,,,0.00,Acu-Link.com,2013-09-07 07:47:00,
2013-09-07 03:02:00,72.0,71.4,29.91,South,180,0.0,-999.0,98,-99.99,,,0.00,Acu-Link.com,2013-09-07 08:02:00,
2013-09-07 03:18:00,71.8,71.2,29.91,SE,135,0.0,-999.0,98,-99.99,,,0.00,Acu-Link.com,2013-09-07 08:18:00,
2013-09-07 03:33:00,71.8,71.2,29.91,West,270,0.0,-999.0,98,-99.99,,,0.00,Acu-Link.com,2013-09-07 08:33:00,
2013-09-07 03:48:00,71.8,71.2,29.91,West,270,0.0,-999.0,98,-99.99,,,0.00,Acu-Link.com,2013-09-07 08:48:00,
2013-09-07 04:03:00,71.8,71.2,29.91,SSW,202,0.0,-999.0,98,-99.99,,,0.00,Acu-Link.com,2013-09-07 09:03:00,
2013-09-07 04:18:00,71.4,70.8,29.91,NNW,337,1.1,-999.0,98,-99.99,,,0.00,Acu-Link.com,2013-09-07 09:18:00,
2013-09-07 04:33:00,71.6,71.3,29.92,NNE,22,1.6,-999.0,99,-99.99,,,0.00,Acu-Link.com,2013-09-07 09:33:00,
2013-09-07 04:49:00,71.4,71.1,29.91,North,0,2.2,-999.0,99,-99.99,,,0.00,Acu-Link.com,2013-09-07 09:49:00,
2013-09-07 05:04:00,71.6,71.3,29.92,WSW,247,0.0,-999.0,99,-99.99,,,0.00,Acu-Link.com,2013-09-07 10:04:00,
2013-09-07 05:19:00,71.1,70.8,29.93,NNW,337,0.0,-999.0,99,-99.99,,,0.00,Acu-Link.com,2013-09-07 10:19:00,
2013-09-07 05:35:00,71.1,70.8,29.93,NE,45,0.0,-999.0,99,-99.99,,,0.00,Acu-Link.com,2013-09-07 10:35:00,
2013-09-07 05:50:00,71.1,70.8,29.94,NE,45,0.0,-999.0,99,-99.99,,,0.00,Acu-Link.com,2013-09-07 10:50:00,
2013-09-07 06:05:00,71.1,70.8,29.94,NNE,22,0.0,-999.0,99,-99.99,,,0.00,Acu-Link.com,2013-09-07 11:05:00,
2013-09-07 06:20:00,71.1,70.8,29.94,NNE,22,2.2,-999.0,99,-99.99,,,0.00,Acu-Link.com,2013-09-07 11:20:00,
2013-09-07 06:36:00,71.2,70.9,29.94,NNE,22,1.6,-999.0,99,-99.99,,,0.00,Acu-Link.com,2013-09-07 11:36:00,
2013-09-07 06:51:00,71.4,71.1,29.95,NNE,22,0.0,-999.0,99,-99.99,,,0.00,Acu-Link.com,2013-09-07 11:51:00,
2013-09-07 07:06:00,71.6,71.3,29.95,South,180,0.0,-999.0,99,-99.99,,,0.00,Acu-Link.com,2013-09-07 12:06:00,
2013-09-07 07:22:00,72.1,71.8,29.96,NNE,22,0.0,-999.0,99,-99.99,,,0.00,Acu-Link.com,2013-09-07 12:22:00,
2013-09-07 07:37:00,72.9,72.6,29.96,NNE,22,0.0,-999.0,99,-99.99,,,0.00,Acu-Link.com,2013-09-07 12:37:00,
2013-09-07 07:52:00,73.2,72.9,29.96,NNE,22,0.0,-999.0,99,-99.99,,,0.00,Acu-Link.com,2013-09-07 12:52:00,
2013-09-07 08:07:00,74.5,74.2,29.96,North,0,1.6,-999.0,99,-99.99,,,0.00,Acu-Link.com,2013-09-07 13:07:00,
2013-09-07 08:22:00,75.4,75.1,29.97,NNW,337,0.0,-999.0,99,-99.99,,,0.00,Acu-Link.com,2013-09-07 13:22:00,
2013-09-07 08:38:00,77.0,75.8,29.97,ESE,112,1.6,-999.0,96,-99.99,,,0.00,Acu-Link.com,2013-09-07 13:38:00,
2013-09-07 08:53:00,81.5,77.6,29.97,SSE,157,0.0,-999.0,88,-99.99,,,0.00,Acu-Link.com,2013-09-07 13:53:00,
2013-09-07 09:08:00,85.6,79.1,29.98,East,90,0.0,-999.0,81,-99.99,,,0.00,Acu-Link.com,2013-09-07 14:08:00,
2013-09-07 09:23:00,88.5,79.1,29.97,NNE,22,0.0,-999.0,74,-99.99,,,0.00,Acu-Link.com,2013-09-07 14:23:00,
2013-09-07 09:38:00,91.6,79.0,29.98,NE,45,1.6,-999.0,67,-99.99,,,0.00,Acu-Link.com,2013-09-07 14:38:00,
2013-09-07 09:53:00,92.8,79.3,29.98,NW,315,3.8,-999.0,65,-99.99,,,0.00,Acu-Link.com,2013-09-07 14:53:00,
2013-09-07 10:08:00,94.6,79.1,29.97,North,0,5.1,-999.0,61,-99.99,,,0.00,Acu-Link.com,2013-09-07 15:08:00,
2013-09-07 10:24:00,93.6,78.5,29.97,NE,45,3.8,-999.0,62,-99.99,,,0.00,Acu-Link.com,2013-09-07 15:24:00,
2013-09-07 10:39:00,95.4,78.2,29.97,NNE,22,4.7,-999.0,58,-99.99,,,0.00,Acu-Link.com,2013-09-07 15:39:00,
2013-09-07 10:54:00,95.5,78.9,29.97,NE,45,4.3,-999.0,59,-99.99,,,0.00,Acu-Link.com,2013-09-07 15:54:00,
2013-09-07 11:09:00,96.4,78.1,29.97,NNE,22,3.8,-999.0,56,-99.99,,,0.00,Acu-Link.com,2013-09-07 16:09:00,
2013-09-07 11:24:00,92.1,76.2,29.97,WNW,292,4.3,-999.0,60,-99.99,,,0.00,Acu-Link.com,2013-09-07 16:24:00,
2013-09-07 11:39:00,92.1,75.2,29.98,SSE,157,5.1,-999.0,58,-99.99,,,0.00,Acu-Link.com,2013-09-07 16:39:00,
2013-09-07 11:54:00,93.0,76.0,29.97,East,90,2.7,-999.0,58,-99.99,,,0.00,Acu-Link.com,2013-09-07 16:54:00,
2013-09-07 12:10:00,93.2,74.6,29.97,ENE,67,0.0,-999.0,55,-99.99,,,0.00,Acu-Link.com,2013-09-07 17:10:00,
2013-09-07 12:25:00,94.1,74.9,29.96,SSE,157,4.3,-999.0,54,-99.99,,,0.00,Acu-Link.com,2013-09-07 17:25:00,
2013-09-07 12:40:00,94.1,74.3,29.95,South,180,6.7,-999.0,53,-99.99,,,0.00,Acu-Link.com,2013-09-07 17:40:00,
2013-09-07 12:56:00,93.7,74.0,29.95,NE,45,2.2,-999.0,53,-99.99,,,0.00,Acu-Link.com,2013-09-07 17:56:00,
2013-09-07 13:11:00,95.7,74.6,29.94,SSE,157,3.8,-999.0,51,-99.99,,,0.00,Acu-Link.com,2013-09-07 18:11:00,
2013-09-07 13:26:00,95.2,73.0,29.92,SE,135,2.7,-999.0,49,-99.99,,,0.00,Acu-Link.com,2013-09-07 18:26:00,
2013-09-07 13:41:00,96.6,72.4,29.92,WNW,292,2.7,-999.0,46,-99.99,,,0.00,Acu-Link.com,2013-09-07 18:41:00,
2013-09-07 13:57:00,95.5,73.3,29.92,ENE,67,0.0,-999.0,49,-99.99,,,0.00,Acu-Link.com,2013-09-07 18:57:00,
2013-09-07 14:12:00,95.9,73.6,29.91,ESE,112,1.6,-999.0,49,-99.99,,,0.00,Acu-Link.com,2013-09-07 19:12:00,
2013-09-07 14:27:00,95.5,73.3,29.91,NW,315,0.0,-999.0,49,-99.99,,,0.00,Acu-Link.com,2013-09-07 19:27:00,
2013-09-07 14:43:00,95.7,72.8,29.90,SSE,157,5.1,-999.0,48,-99.99,,,0.00,Acu-Link.com,2013-09-07 19:43:00,
2013-09-07 14:58:00,99.0,72.5,29.89,ESE,112,3.1,-999.0,43,-99.99,,,0.00,Acu-Link.com,2013-09-07 19:58:00,
2013-09-07 15:13:00,96.3,72.1,29.88,South,180,2.7,-999.0,46,-99.99,,,0.00,Acu-Link.com,2013-09-07 20:13:00,
2013-09-07 15:29:00,95.0,73.4,29.87,ESE,112,1.6,-999.0,50,-99.99,,,0.00,Acu-Link.com,2013-09-07 20:29:00,
2013-09-07 15:44:00,99.3,72.1,29.87,SSE,157,3.8,-999.0,42,-99.99,,,0.00,Acu-Link.com,2013-09-07 20:44:00,
2013-09-07 15:59:00,102.7,73.0,29.86,ENE,67,2.7,-999.0,39,-99.99,,,0.00,Acu-Link.com,2013-09-07 20:59:00,
2013-09-07 16:14:00,100.2,70.7,29.86,ESE,112,2.2,-999.0,39,-99.99,,,0.00,Acu-Link.com,2013-09-07 21:14:00,
2013-09-07 16:29:00,97.5,72.5,29.86,ESE,112,1.1,-999.0,45,-99.99,,,0.00,Acu-Link.com,2013-09-07 21:29:00,
2013-09-07 16:45:00,94.8,72.0,29.87,ESE,112,1.6,-999.0,48,-99.99,,,0.04,Acu-Link.com,2013-09-07 21:45:00,
2013-09-07 17:00:00,86.4,74.5,29.87,South,180,9.4,-999.0,68,-99.99,,,0.25,Acu-Link.com,2013-09-07 22:00:00,
2013-09-07 17:15:00,85.6,74.3,29.88,WSW,247,9.4,-999.0,69,-99.99,,,0.25,Acu-Link.com,2013-09-07 22:15:00,
2013-09-07 17:30:00,84.9,74.0,29.88,SSW,202,7.8,-999.0,70,-99.99,,,0.25,Acu-Link.com,2013-09-07 22:30:00,
2013-09-07 17:46:00,84.2,73.8,29.89,WSW,247,4.3,-999.0,71,-99.99,,,0.25,Acu-Link.com,2013-09-07 22:46:00,
2013-09-07 18:01:00,82.6,73.0,29.88,West,270,3.8,-999.0,73,-99.99,,,0.25,Acu-Link.com,2013-09-07 23:01:00,
2013-09-07 18:16:00,81.7,73.0,29.90,NW,315,3.1,-999.0,75,-99.99,,,0.25,Acu-Link.com,2013-09-07 23:16:00,
2013-09-07 18:31:00,80.8,72.9,29.89,West,270,2.2,-999.0,77,-99.99,,,0.25,Acu-Link.com,2013-09-07 23:31:00,
2013-09-07 18:47:00,81.0,73.4,29.91,NNW,337,2.7,-999.0,78,-99.99,,,0.25,Acu-Link.com,2013-09-07 23:47:00,
2013-09-07 19:02:00,80.6,72.7,29.91,WNW,292,4.3,-999.0,77,-99.99,,,0.25,Acu-Link.com,2013-09-08 00:02:00,
2013-09-07 19:17:00,80.8,72.5,29.91,West,270,3.1,-999.0,76,-99.99,,,0.25,Acu-Link.com,2013-09-08 00:17:00,
2013-09-07 19:33:00,79.5,73.5,29.93,East,90,9.8,-999.0,82,-99.99,,,0.25,Acu-Link.com,2013-09-08 00:33:00,
2013-09-07 19:48:00,77.7,72.8,29.94,NNE,22,1.6,-999.0,85,-99.99,,,0.25,Acu-Link.com,2013-09-08 00:48:00,
2013-09-07 20:03:00,75.9,71.8,29.91,West,270,0.0,-999.0,87,-99.99,,,0.30,Acu-Link.com,2013-09-08 01:03:00,
2013-09-07 20:19:00,74.3,71.8,29.90,SE,135,2.2,-999.0,92,-99.99,,,0.31,Acu-Link.com,2013-09-08 01:19:00,
2013-09-07 20:34:00,74.1,72.0,29.91,SSW,202,3.1,-999.0,93,-99.99,,,0.31,Acu-Link.com,2013-09-08 01:34:00,
2013-09-07 20:49:00,73.8,71.6,29.92,West,270,0.0,-999.0,93,-99.99,,,0.31,Acu-Link.com,2013-09-08 01:49:00,
2013-09-07 21:04:00,73.8,71.9,29.92,South,180,0.0,-999.0,94,-99.99,,,0.31,Acu-Link.com,2013-09-08 02:04:00,
2013-09-07 21:20:00,73.8,72.2,29.92,WNW,292,0.0,-999.0,95,-99.99,,,0.31,Acu-Link.com,2013-09-08 02:20:00,
2013-09-07 21:35:00,73.4,72.2,29.92,WSW,247,0.0,-999.0,96,-99.99,,,0.31,Acu-Link.com,2013-09-08 02:35:00,
2013-09-07 21:50:00,73.4,72.2,29.93,ENE,67,0.0,-999.0,96,-99.99,,,0.31,Acu-Link.com,2013-09-08 02:50:00,
2013-09-07 22:05:00,73.0,72.1,29.92,West,270,0.0,-999.0,97,-99.99,,,0.31,Acu-Link.com,2013-09-08 03:05:00,
2013-09-07 22:20:00,72.9,72.0,29.93,South,180,0.0,-999.0,97,-99.99,,,0.31,Acu-Link.com,2013-09-08 03:20:00,
2013-09-07 22:36:00,72.7,71.8,29.92,North,0,0.0,-999.0,97,-99.99,,,0.31,Acu-Link.com,2013-09-08 03:36:00,
2013-09-07 22:51:00,72.5,71.6,29.92,West,270,0.0,-999.0,97,-99.99,,,0.31,Acu-Link.com,2013-09-08 03:51:00,
2013-09-07 23:06:00,72.5,71.9,29.92,WNW,292,0.0,-999.0,98,-99.99,,,0.31,Acu-Link.com,2013-09-08 04:06:00,
2013-09-07 23:21:00,72.5,71.9,29.91,West,270,0.0,-999.0,98,-99.99,,,0.31,Acu-Link.com,2013-09-08 04:21:00,
2013-09-07 23:37:00,71.8,71.2,29.91,ESE,112,0.0,-999.0,98,-99.99,,,0.31,Acu-Link.com,2013-09-08 04:37:00,
2013-09-07 23:52:00,71.6,71.0,29.92,West,270,0.0,-999.0,98,-99.99,,,0.31,Acu-Link.com,2013-09-08 04:52:00,